createdAt,value
2018-06-02T00:00:22.602Z,0.00
2018-06-02T00:01:22.530Z,0.00
2018-06-02T00:02:22.457Z,0.00
2018-06-02T00:03:22.385Z,0.00
2018-06-02T00:04:22.312Z,0.00
2018-06-02T00:05:22.238Z,0.00
2018-06-02T00:06:22.165Z,0.00
2018-06-02T00:07:22.095Z,0.00
2018-06-02T00:08:22.022Z,0.00
2018-06-02T00:09:21.949Z,0.00
2018-06-02T00:10:21.875Z,0.00
2018-06-02T00:11:21.882Z,0.00
2018-06-02T00:12:21.729Z,0.00
2018-06-02T00:13:21.657Z,0.00
2018-06-02T00:14:21.585Z,0.00
2018-06-02T00:15:21.512Z,0.00
2018-06-02T00:16:21.439Z,0.00
2018-06-02T00:17:21.367Z,0.00
2018-06-02T00:18:21.296Z,0.00
2018-06-02T00:19:21.221Z,0.00
2018-06-02T00:20:21.148Z,0.00
2018-06-02T00:21:21.076Z,0.00
2018-06-02T00:22:21.004Z,0.00
2018-06-02T00:23:20.931Z,0.00
2018-06-02T00:24:20.856Z,0.00
2018-06-02T00:25:20.785Z,0.00
2018-06-02T00:26:20.718Z,0.00
2018-06-02T00:27:20.639Z,0.00
2018-06-02T00:28:20.566Z,0.00
2018-06-02T00:29:20.496Z,0.00
2018-06-02T00:30:20.420Z,0.00
2018-06-02T00:31:20.350Z,0.00
2018-06-02T00:32:20.276Z,0.00
2018-06-02T00:33:20.205Z,0.00
2018-06-02T00:34:20.130Z,0.00
2018-06-02T00:35:20.058Z,0.00
2018-06-02T00:36:19.985Z,0.00
2018-06-02T00:37:19.912Z,0.00
2018-06-02T00:38:19.839Z,0.00
2018-06-02T00:39:19.766Z,0.00
2018-06-02T00:40:19.693Z,0.00
2018-06-02T00:41:19.621Z,0.00
2018-06-02T00:42:19.548Z,0.00
2018-06-02T00:43:19.474Z,0.00
2018-06-02T00:44:19.402Z,0.00
2018-06-02T00:45:19.330Z,0.00
2018-06-02T00:46:19.258Z,0.00
2018-06-02T00:47:19.185Z,0.00
2018-06-02T00:48:19.110Z,0.00
2018-06-02T00:49:19.039Z,0.00
2018-06-02T00:50:18.965Z,0.00
2018-06-02T00:51:18.893Z,0.00
2018-06-02T00:52:18.819Z,0.00
2018-06-02T00:53:18.747Z,0.00
2018-06-02T00:54:18.674Z,0.00
2018-06-02T00:55:18.600Z,0.00
2018-06-02T00:56:18.527Z,0.00
2018-06-02T00:57:18.455Z,0.00
2018-06-02T00:58:18.386Z,0.00
2018-06-02T00:59:18.309Z,0.00
2018-06-02T01:00:18.235Z,0.00
2018-06-02T01:01:18.163Z,0.00
2018-06-02T01:02:18.090Z,0.00
2018-06-02T01:03:18.021Z,0.00
2018-06-02T01:04:17.944Z,0.00
2018-06-02T01:05:17.871Z,0.00
2018-06-02T01:06:17.801Z,0.00
2018-06-02T01:07:17.725Z,0.00
2018-06-02T01:08:17.656Z,0.00
2018-06-02T01:09:17.579Z,0.00
2018-06-02T01:10:17.506Z,0.00
2018-06-02T01:11:17.434Z,0.00
2018-06-02T01:12:17.363Z,0.00
2018-06-02T01:13:17.290Z,0.00
2018-06-02T01:14:17.214Z,0.00
2018-06-02T01:15:17.141Z,0.00
2018-06-02T01:16:17.068Z,0.00
2018-06-02T01:17:16.994Z,0.00
2018-06-02T01:18:16.923Z,0.00
2018-06-02T01:19:16.848Z,0.00
2018-06-02T01:20:16.774Z,0.00
2018-06-02T01:21:16.702Z,0.00
2018-06-02T01:22:16.629Z,0.00
2018-06-02T01:23:16.556Z,0.00
2018-06-02T01:24:16.482Z,0.00
2018-06-02T01:25:16.410Z,0.00
2018-06-02T01:26:16.337Z,0.00
2018-06-02T01:27:16.263Z,0.00
2018-06-02T01:28:16.189Z,0.00
2018-06-02T01:29:16.116Z,0.00
2018-06-02T01:30:16.043Z,0.00
2018-06-02T01:31:15.971Z,0.00
2018-06-02T01:32:15.896Z,0.00
2018-06-02T01:33:15.825Z,0.00
2018-06-02T01:34:15.750Z,0.00
2018-06-02T01:35:15.677Z,0.00
2018-06-02T01:36:15.604Z,0.00
2018-06-02T01:37:15.531Z,0.00
2018-06-02T01:38:15.457Z,0.00
2018-06-02T01:39:15.385Z,0.00
2018-06-02T01:40:15.311Z,0.00
2018-06-02T01:41:15.238Z,0.00
2018-06-02T01:42:15.165Z,0.00
2018-06-02T01:43:15.093Z,0.00
2018-06-02T01:44:15.018Z,0.00
2018-06-02T01:45:14.948Z,0.00
2018-06-02T01:46:14.871Z,0.00
2018-06-02T01:47:14.798Z,0.00
2018-06-02T01:48:14.724Z,0.00
2018-06-02T01:49:14.653Z,0.00
2018-06-02T01:50:14.579Z,0.00
2018-06-02T01:51:14.507Z,0.00
2018-06-02T01:52:14.433Z,0.00
2018-06-02T01:53:14.861Z,0.00
2018-06-02T01:54:14.287Z,0.00
2018-06-02T01:55:14.214Z,0.00
2018-06-02T01:56:14.139Z,0.00
2018-06-02T01:57:14.066Z,0.00
2018-06-02T01:58:13.994Z,0.00
2018-06-02T01:59:13.919Z,0.00
2018-06-02T02:00:13.849Z,0.00
2018-06-02T02:01:13.772Z,0.00
2018-06-02T02:02:13.703Z,0.00
2018-06-02T02:03:13.629Z,0.00
2018-06-02T02:04:13.553Z,0.00
2018-06-02T02:05:13.479Z,0.00
2018-06-02T02:06:13.407Z,0.00
2018-06-02T02:07:13.333Z,0.00
2018-06-02T02:08:13.259Z,0.00
2018-06-02T02:09:13.187Z,0.00
2018-06-02T02:10:13.115Z,0.00
2018-06-02T02:11:13.041Z,0.00
2018-06-02T02:12:12.965Z,0.00
2018-06-02T02:13:12.893Z,0.00
2018-06-02T02:14:12.820Z,0.00
2018-06-02T02:15:12.747Z,0.00
2018-06-02T02:16:12.672Z,0.00
2018-06-02T02:17:12.599Z,0.00
2018-06-02T02:18:12.527Z,0.00
2018-06-02T02:19:12.454Z,0.00
2018-06-02T02:20:12.379Z,0.00
2018-06-02T02:21:12.308Z,0.00
2018-06-02T02:22:12.233Z,0.00
2018-06-02T02:23:12.163Z,0.00
2018-06-02T02:24:12.085Z,0.00
2018-06-02T02:25:12.011Z,0.00
2018-06-02T02:26:11.939Z,0.00
2018-06-02T02:27:11.865Z,0.00
2018-06-02T02:28:11.791Z,0.00
2018-06-02T02:29:11.717Z,0.00
2018-06-02T02:30:11.643Z,0.00
2018-06-02T02:31:11.573Z,0.00
2018-06-02T02:32:11.497Z,0.00
2018-06-02T02:33:11.428Z,0.00
2018-06-02T02:34:11.350Z,0.00
2018-06-02T02:35:11.277Z,0.00
2018-06-02T02:36:11.205Z,0.00
2018-06-02T02:37:11.128Z,0.00
2018-06-02T02:38:11.059Z,0.00
2018-06-02T02:39:10.985Z,0.00
2018-06-02T02:40:10.910Z,0.00
2018-06-02T02:41:10.835Z,0.00
2018-06-02T02:42:10.761Z,0.00
2018-06-02T02:43:10.688Z,0.00
2018-06-02T02:44:10.614Z,0.00
2018-06-02T02:45:10.540Z,0.00
2018-06-02T02:46:10.466Z,0.00
2018-06-02T02:47:10.392Z,0.00
2018-06-02T02:48:10.318Z,0.00
2018-06-02T02:49:10.245Z,0.00
2018-06-02T02:50:10.178Z,4.00
2018-06-02T02:51:10.100Z,4.00
2018-06-02T02:52:10.027Z,4.00
2018-06-02T02:53:09.951Z,4.00
2018-06-02T02:54:09.878Z,0.00
2018-06-02T02:55:09.804Z,4.00
2018-06-02T02:56:09.729Z,4.00
2018-06-02T02:57:09.658Z,4.00
2018-06-02T02:58:09.584Z,4.00
2018-06-02T02:59:09.509Z,4.00
2018-06-02T03:00:09.436Z,8.00
2018-06-02T03:01:09.362Z,8.00
2018-06-02T03:02:09.289Z,12.00
2018-06-02T03:03:09.216Z,8.00
2018-06-02T03:04:09.141Z,8.00
2018-06-02T03:05:09.067Z,12.00
2018-06-02T03:06:08.997Z,16.00
2018-06-02T03:07:08.921Z,16.00
2018-06-02T03:08:08.847Z,20.00
2018-06-02T03:09:08.774Z,20.00
2018-06-02T03:10:08.700Z,24.00
2018-06-02T03:11:08.628Z,28.00
2018-06-02T03:12:08.554Z,32.00
2018-06-02T03:13:08.479Z,32.00
2018-06-02T03:14:08.415Z,36.00
2018-06-02T03:15:08.337Z,40.00
2018-06-02T03:16:08.259Z,44.00
2018-06-02T03:17:08.186Z,48.00
2018-06-02T03:18:08.112Z,52.00
2018-06-02T03:19:08.038Z,60.00
2018-06-02T03:20:07.966Z,64.00
2018-06-02T03:21:07.891Z,68.00
2018-06-02T03:22:07.817Z,76.00
2018-06-02T03:23:07.745Z,80.00
2018-06-02T03:24:07.671Z,92.00
2018-06-02T03:25:07.597Z,96.00
2018-06-02T03:26:07.525Z,104.00
2018-06-02T03:27:07.451Z,112.00
2018-06-02T03:28:07.381Z,116.00
2018-06-02T03:29:07.303Z,128.00
2018-06-02T03:30:07.230Z,136.00
2018-06-02T03:31:07.161Z,144.00
2018-06-02T03:32:07.082Z,152.00
2018-06-02T03:33:07.010Z,164.00
2018-06-02T03:34:06.936Z,172.00
2018-06-02T03:35:06.863Z,184.00
2018-06-02T03:36:06.793Z,192.00
2018-06-02T03:37:06.716Z,204.00
2018-06-02T03:38:06.643Z,216.00
2018-06-02T03:39:06.571Z,224.00
2018-06-02T03:40:06.495Z,236.00
2018-06-02T03:41:06.421Z,248.00
2018-06-02T03:42:06.347Z,260.00
2018-06-02T03:43:06.276Z,268.00
2018-06-02T03:44:06.204Z,280.00
2018-06-02T03:45:06.130Z,292.00
2018-06-02T03:46:06.059Z,300.00
2018-06-02T03:47:05.982Z,308.00
2018-06-02T03:48:05.916Z,320.00
2018-06-02T03:49:05.833Z,332.00
2018-06-02T03:50:05.759Z,340.00
2018-06-02T03:51:05.686Z,352.00
2018-06-02T03:52:05.612Z,364.00
2018-06-02T03:53:05.539Z,372.00
2018-06-02T03:54:05.465Z,380.00
2018-06-02T03:55:05.392Z,388.00
2018-06-02T03:56:05.318Z,400.00
2018-06-02T03:57:05.246Z,408.00
2018-06-02T03:58:05.172Z,420.00
2018-06-02T03:59:05.098Z,432.00
2018-06-02T04:00:05.029Z,444.00
2018-06-02T04:01:04.950Z,456.00
2018-06-02T04:02:04.877Z,468.00
2018-06-02T04:03:04.805Z,480.00
2018-06-02T04:04:04.730Z,488.00
2018-06-02T04:05:04.656Z,508.00
2018-06-02T04:06:04.583Z,520.00
2018-06-02T04:07:04.512Z,524.00
2018-06-02T04:08:04.436Z,528.00
2018-06-02T04:09:04.363Z,544.00
2018-06-02T04:10:04.290Z,568.00
2018-06-02T04:11:04.221Z,600.00
2018-06-02T04:12:04.142Z,624.00
2018-06-02T04:13:04.074Z,640.00
2018-06-02T04:14:03.998Z,632.00
2018-06-02T04:15:03.922Z,604.00
2018-06-02T04:16:03.851Z,592.00
2018-06-02T04:17:03.776Z,592.00
2018-06-02T04:18:03.702Z,600.00
2018-06-02T04:19:03.630Z,604.00
2018-06-02T04:20:03.555Z,616.00
2018-06-02T04:21:03.482Z,624.00
2018-06-02T04:22:03.410Z,628.00
2018-06-02T04:23:03.336Z,636.00
2018-06-02T04:24:03.263Z,644.00
2018-06-02T04:25:03.190Z,656.00
2018-06-02T04:26:03.123Z,664.00
2018-06-02T04:27:03.046Z,676.00
2018-06-02T04:28:02.970Z,684.00
2018-06-02T04:29:02.898Z,692.00
2018-06-02T04:30:02.825Z,708.00
2018-06-02T04:31:02.752Z,712.00
2018-06-02T04:32:02.678Z,712.00
2018-06-02T04:33:02.605Z,716.00
2018-06-02T04:34:02.532Z,728.00
2018-06-02T04:35:02.463Z,732.00
2018-06-02T04:36:02.386Z,736.00
2018-06-02T04:37:02.313Z,744.00
2018-06-02T04:38:02.240Z,752.00
2018-06-02T04:39:02.166Z,760.00
2018-06-02T04:40:02.094Z,776.00
2018-06-02T04:41:02.020Z,796.00
2018-06-02T04:42:01.946Z,836.00
2018-06-02T04:43:01.879Z,856.00
2018-06-02T04:44:01.802Z,868.00
2018-06-02T04:45:01.730Z,912.00
2018-06-02T04:46:01.655Z,952.00
2018-06-02T04:47:01.581Z,988.00
2018-06-02T04:48:01.508Z,1016.00
2018-06-02T04:49:01.438Z,1016.00
2018-06-02T04:50:01.365Z,984.00
2018-06-02T04:51:01.298Z,940.00
2018-06-02T04:52:01.218Z,912.00
2018-06-02T04:53:01.155Z,900.00
2018-06-02T04:54:01.074Z,904.00
2018-06-02T04:55:01.007Z,916.00
2018-06-02T04:56:00.925Z,932.00
2018-06-02T04:57:00.853Z,944.00
2018-06-02T04:58:00.780Z,960.00
2018-06-02T04:59:00.708Z,976.00
2018-06-02T05:00:00.636Z,1000.00
2018-06-02T05:01:00.564Z,1052.00
2018-06-02T05:02:00.490Z,1140.00
2018-06-02T05:03:00.418Z,1268.00
2018-06-02T05:04:00.342Z,1352.00
2018-06-02T05:05:00.272Z,1384.00
2018-06-02T05:06:00.199Z,1424.00
2018-06-02T05:07:00.127Z,1488.00
2018-06-02T05:08:00.054Z,1580.00
2018-06-02T05:08:59.984Z,1636.00
2018-06-02T05:09:59.908Z,1688.00
2018-06-02T05:10:59.837Z,1792.00
2018-06-02T05:11:59.764Z,1808.00
2018-06-02T05:12:59.692Z,1904.00
2018-06-02T05:13:59.620Z,1976.00
2018-06-02T05:14:59.547Z,1896.00
2018-06-02T05:15:59.475Z,1972.00
2018-06-02T05:16:59.403Z,2028.00
2018-06-02T05:17:59.332Z,1972.00
2018-06-02T05:18:59.262Z,1860.00
2018-06-02T05:19:59.185Z,1756.00
2018-06-02T05:20:59.127Z,1736.00
2018-06-02T05:21:59.042Z,1644.00
2018-06-02T05:22:58.970Z,1720.00
2018-06-02T05:23:58.898Z,1812.00
2018-06-02T05:24:58.827Z,1952.00
2018-06-02T05:25:58.761Z,2008.00
2018-06-02T05:26:58.684Z,2064.00
2018-06-02T05:27:58.623Z,2124.00
2018-06-02T05:28:58.539Z,2092.00
2018-06-02T05:29:58.468Z,2004.00
2018-06-02T05:30:58.403Z,1972.00
2018-06-02T05:31:58.325Z,1952.00
2018-06-02T05:32:58.253Z,1848.00
2018-06-02T05:33:58.182Z,1800.00
2018-06-02T05:34:58.111Z,1612.00
2018-06-02T05:35:58.039Z,1480.00
2018-06-02T05:36:57.968Z,1364.00
2018-06-02T05:37:57.896Z,1312.00
2018-06-02T05:38:57.824Z,1280.00
2018-06-02T05:39:57.752Z,1256.00
2018-06-02T05:40:57.684Z,1236.00
2018-06-02T05:41:57.611Z,1240.00
2018-06-02T05:42:57.540Z,1240.00
2018-06-02T05:43:57.469Z,1216.00
2018-06-02T05:44:57.397Z,1208.00
2018-06-02T05:45:57.390Z,1216.00
2018-06-02T05:46:57.256Z,1252.00
2018-06-02T05:47:57.183Z,1256.00
2018-06-02T05:48:57.113Z,1280.00
2018-06-02T05:49:57.044Z,1252.00
2018-06-02T05:50:56.971Z,1248.00
2018-06-02T05:51:56.899Z,1248.00
2018-06-02T05:52:56.828Z,1228.00
2018-06-02T05:53:56.756Z,1156.00
2018-06-02T05:54:56.686Z,1196.00
2018-06-02T05:55:56.614Z,1220.00
2018-06-02T05:56:56.541Z,1208.00
2018-06-02T05:57:56.473Z,1220.00
2018-06-02T05:58:56.401Z,1156.00
2018-06-02T05:59:56.385Z,1084.00
2018-06-02T06:00:56.256Z,1068.00
2018-06-02T06:01:56.185Z,1068.00
2018-06-02T06:02:56.113Z,1076.00
2018-06-02T06:03:56.041Z,1072.00
2018-06-02T06:04:55.972Z,1084.00
2018-06-02T06:05:55.901Z,1124.00
2018-06-02T06:06:55.829Z,1232.00
2018-06-02T06:07:55.763Z,1444.00
2018-06-02T06:08:55.683Z,2092.00
2018-06-02T06:09:55.616Z,2392.00
2018-06-02T06:10:55.542Z,1996.00
2018-06-02T06:11:55.472Z,1760.00
2018-06-02T06:12:55.399Z,1764.00
2018-06-02T06:13:55.332Z,3156.00
2018-06-02T06:14:55.273Z,3472.00
2018-06-02T06:15:55.184Z,3032.00
2018-06-02T06:16:55.114Z,2428.00
2018-06-02T06:17:55.044Z,2792.00
2018-06-02T06:18:54.972Z,2512.00
2018-06-02T06:19:54.900Z,2424.00
2018-06-02T06:20:54.829Z,2316.00
2018-06-02T06:21:54.758Z,1936.00
2018-06-02T06:22:54.690Z,1432.00
2018-06-02T06:23:54.614Z,1272.00
2018-06-02T06:24:54.544Z,1196.00
2018-06-02T06:25:54.475Z,1216.00
2018-06-02T06:26:54.436Z,1328.00
2018-06-02T06:27:54.331Z,1580.00
2018-06-02T06:28:54.260Z,2172.00
2018-06-02T06:29:54.191Z,2412.00
2018-06-02T06:30:54.118Z,2188.00
2018-06-02T06:31:54.055Z,1584.00
2018-06-02T06:32:54.034Z,1476.00
2018-06-02T06:33:53.905Z,1444.00
2018-06-02T06:34:53.834Z,2248.00
2018-06-02T06:35:53.764Z,2032.00
2018-06-02T06:36:53.692Z,2016.00
2018-06-02T06:37:53.621Z,1772.00
2018-06-02T06:38:53.550Z,1968.00
2018-06-02T06:39:53.478Z,2312.00
2018-06-02T06:40:53.407Z,1836.00
2018-06-02T06:41:53.336Z,1840.00
2018-06-02T06:42:53.266Z,1952.00
2018-06-02T06:43:53.192Z,2160.00
2018-06-02T06:44:53.127Z,2480.00
2018-06-02T06:45:53.053Z,2332.00
2018-06-02T06:46:52.983Z,2072.00
2018-06-02T06:47:52.910Z,1976.00
2018-06-02T06:48:52.839Z,1872.00
2018-06-02T06:49:52.770Z,2024.00
2018-06-02T06:50:52.698Z,2188.00
2018-06-02T06:51:52.627Z,2200.00
2018-06-02T06:52:52.556Z,1764.00
2018-06-02T06:53:52.487Z,1816.00
2018-06-02T06:54:52.417Z,2260.00
2018-06-02T06:55:52.346Z,2072.00
2018-06-02T06:56:52.279Z,1736.00
2018-06-02T06:57:52.207Z,1704.00
2018-06-02T06:58:52.134Z,1636.00
2018-06-02T06:59:52.063Z,1628.00
2018-06-02T07:00:51.993Z,1620.00
2018-06-02T07:01:51.923Z,1612.00
2018-06-02T07:02:51.854Z,1300.00
2018-06-02T07:03:51.781Z,1268.00
2018-06-02T07:04:51.710Z,1368.00
2018-06-02T07:05:51.641Z,1420.00
2018-06-02T07:06:51.571Z,1748.00
2018-06-02T07:07:51.499Z,1824.00
2018-06-02T07:08:51.481Z,2212.00
2018-06-02T07:09:51.359Z,2444.00
2018-06-02T07:10:51.289Z,2156.00
2018-06-02T07:11:51.264Z,2856.00
2018-06-02T07:12:51.150Z,2940.00
2018-06-02T07:13:51.077Z,2620.00
2018-06-02T07:14:51.008Z,2360.00
2018-06-02T07:15:50.939Z,2444.00
2018-06-02T07:16:50.876Z,2524.00
2018-06-02T07:17:50.978Z,2484.00
2018-06-02T07:18:50.727Z,3084.00
2018-06-02T07:19:50.655Z,4264.00
2018-06-02T07:20:50.586Z,4248.00
2018-06-02T07:21:50.531Z,3844.00
2018-06-02T07:22:50.449Z,2664.00
2018-06-02T07:23:50.375Z,2192.00
2018-06-02T07:24:50.312Z,2308.00
2018-06-02T07:25:50.237Z,2204.00
2018-06-02T07:26:50.166Z,1820.00
2018-06-02T07:27:50.093Z,1820.00
2018-06-02T07:28:50.026Z,1760.00
2018-06-02T07:29:49.955Z,1680.00
2018-06-02T07:30:49.887Z,1672.00
2018-06-02T07:31:49.814Z,1320.00
2018-06-02T07:32:49.746Z,1544.00
2018-06-02T07:33:49.677Z,1676.00
2018-06-02T07:34:49.608Z,1656.00
2018-06-02T07:35:49.537Z,1652.00
2018-06-02T07:36:49.469Z,1668.00
2018-06-02T07:37:49.398Z,1680.00
2018-06-02T07:38:49.331Z,1672.00
2018-06-02T07:39:49.256Z,1672.00
2018-06-02T07:40:49.186Z,1652.00
2018-06-02T07:41:49.116Z,1648.00
2018-06-02T07:42:49.047Z,1648.00
2018-06-02T07:43:48.976Z,1656.00
2018-06-02T07:44:48.906Z,1664.00
2018-06-02T07:45:48.841Z,1672.00
2018-06-02T07:46:48.767Z,1676.00
2018-06-02T07:47:48.699Z,1676.00
2018-06-02T07:48:48.626Z,1656.00
2018-06-02T07:49:48.578Z,1668.00
2018-06-02T07:50:48.486Z,1624.00
2018-06-02T07:51:48.415Z,1700.00
2018-06-02T07:52:48.345Z,1688.00
2018-06-02T07:53:48.276Z,1684.00
2018-06-02T07:54:48.205Z,1524.00
2018-06-02T07:55:48.136Z,1756.00
2018-06-02T07:56:48.066Z,1624.00
2018-06-02T07:57:47.997Z,2200.00
2018-06-02T07:58:47.927Z,2160.00
2018-06-02T07:59:47.855Z,2124.00
2018-06-02T08:00:47.790Z,2080.00
2018-06-02T08:01:47.717Z,2104.00
2018-06-02T08:02:47.647Z,2392.00
2018-06-02T08:03:47.577Z,2504.00
2018-06-02T08:04:47.507Z,2796.00
2018-06-02T08:05:47.437Z,3100.00
2018-06-02T08:06:47.372Z,3856.00
2018-06-02T08:07:47.296Z,3632.00
2018-06-02T08:08:47.230Z,3184.00
2018-06-02T08:09:47.158Z,5116.00
2018-06-02T08:10:47.089Z,6296.00
2018-06-02T08:11:47.019Z,5556.00
2018-06-02T08:12:46.949Z,5148.00
2018-06-02T08:13:46.879Z,5788.00
2018-06-02T08:14:46.809Z,4164.00
2018-06-02T08:15:46.742Z,3540.00
2018-06-02T08:16:46.668Z,2704.00
2018-06-02T08:17:46.600Z,2376.00
2018-06-02T08:18:46.531Z,2820.00
2018-06-02T08:19:46.460Z,2412.00
2018-06-02T08:20:46.391Z,2220.00
2018-06-02T08:21:46.321Z,2192.00
2018-06-02T08:22:46.251Z,2092.00
2018-06-02T08:23:46.183Z,2228.00
2018-06-02T08:24:46.111Z,2484.00
2018-06-02T08:25:46.042Z,2652.00
2018-06-02T08:26:45.976Z,2952.00
2018-06-02T08:27:45.902Z,2660.00
2018-06-02T08:28:45.833Z,2348.00
2018-06-02T08:29:45.766Z,2180.00
2018-06-02T08:30:45.694Z,2436.00
2018-06-02T08:31:45.625Z,2556.00
2018-06-02T08:32:45.554Z,2908.00
2018-06-02T08:33:45.484Z,3444.00
2018-06-02T08:34:45.414Z,4176.00
2018-06-02T08:35:45.345Z,4464.00
2018-06-02T08:36:45.273Z,5656.00
2018-06-02T08:37:45.205Z,6512.00
2018-06-02T08:38:45.136Z,5900.00
2018-06-02T08:39:45.065Z,4928.00
2018-06-02T08:40:44.996Z,4084.00
2018-06-02T08:41:44.927Z,3044.00
2018-06-02T08:42:44.858Z,2212.00
2018-06-02T08:43:44.787Z,2032.00
2018-06-02T08:44:44.719Z,1984.00
2018-06-02T08:45:44.649Z,2008.00
2018-06-02T08:46:44.581Z,2032.00
2018-06-02T08:47:44.509Z,1956.00
2018-06-02T08:48:44.442Z,2112.00
2018-06-02T08:49:44.373Z,2092.00
2018-06-02T08:50:44.303Z,2248.00
2018-06-02T08:51:44.242Z,2776.00
2018-06-02T08:52:44.166Z,3028.00
2018-06-02T08:53:44.099Z,3344.00
2018-06-02T08:54:44.026Z,3340.00
2018-06-02T08:55:43.956Z,3120.00
2018-06-02T08:56:43.887Z,2936.00
2018-06-02T08:57:43.818Z,2756.00
2018-06-02T08:58:44.098Z,2576.00
2018-06-02T08:59:43.678Z,2808.00
2018-06-02T09:00:43.610Z,3204.00
2018-06-02T09:01:43.541Z,3336.00
2018-06-02T09:02:43.471Z,3560.00
2018-06-02T09:03:43.401Z,3688.00
2018-06-02T09:04:43.332Z,3748.00
2018-06-02T09:05:43.263Z,3688.00
2018-06-02T09:06:43.194Z,4832.00
2018-06-02T09:07:43.123Z,5672.00
2018-06-02T09:08:43.060Z,6052.00
2018-06-02T09:09:42.986Z,5764.00
2018-06-02T09:10:42.917Z,4912.00
2018-06-02T09:11:42.848Z,4948.00
2018-06-02T09:12:42.780Z,4588.00
2018-06-02T09:13:42.710Z,5356.00
2018-06-02T09:14:42.642Z,4492.00
2018-06-02T09:15:42.575Z,4480.00
2018-06-02T09:16:42.504Z,4076.00
2018-06-02T09:17:42.435Z,3352.00
2018-06-02T09:18:42.367Z,3340.00
2018-06-02T09:19:42.298Z,3876.00
2018-06-02T09:20:42.229Z,3600.00
2018-06-02T09:21:42.170Z,3536.00
2018-06-02T09:22:42.093Z,3268.00
2018-06-02T09:23:42.022Z,4120.00
2018-06-02T09:24:41.954Z,4224.00
2018-06-02T09:25:41.885Z,4916.00
2018-06-02T09:26:41.817Z,5948.00
2018-06-02T09:27:41.749Z,6360.00
2018-06-02T09:28:41.686Z,5888.00
2018-06-02T09:29:41.611Z,4688.00
2018-06-02T09:30:41.542Z,3628.00
2018-06-02T09:31:41.472Z,3196.00
2018-06-02T09:32:41.404Z,2432.00
2018-06-02T09:33:41.337Z,2468.00
2018-06-02T09:34:41.269Z,2744.00
2018-06-02T09:35:41.198Z,2804.00
2018-06-02T09:36:41.129Z,2764.00
2018-06-02T09:37:41.060Z,3032.00
2018-06-02T09:38:40.992Z,3788.00
2018-06-02T09:39:40.922Z,4072.00
2018-06-02T09:40:40.854Z,4416.00
2018-06-02T09:41:40.788Z,5000.00
2018-06-02T09:42:40.719Z,6280.00
2018-06-02T09:43:40.648Z,6004.00
2018-06-02T09:44:40.627Z,4532.00
2018-06-02T09:45:40.509Z,4028.00
2018-06-02T09:46:40.442Z,5216.00
2018-06-02T09:47:40.375Z,5812.00
2018-06-02T09:48:40.304Z,3652.00
2018-06-02T09:49:40.237Z,2720.00
2018-06-02T09:50:40.168Z,3404.00
2018-06-02T09:51:40.099Z,4204.00
2018-06-02T09:52:40.030Z,4672.00
2018-06-02T09:53:39.961Z,5436.00
2018-06-02T09:54:39.895Z,5568.00
2018-06-02T09:55:39.825Z,8252.00
2018-06-02T09:56:39.756Z,8024.00
2018-06-02T09:57:39.692Z,8500.00
2018-06-02T09:58:39.620Z,7256.00
2018-06-02T09:59:39.549Z,6976.00
2018-06-02T10:00:39.484Z,6988.00
2018-06-02T10:01:39.412Z,7016.00
2018-06-02T10:02:39.344Z,6020.00
2018-06-02T10:03:39.274Z,5252.00
2018-06-02T10:04:39.269Z,4964.00
2018-06-02T10:05:39.137Z,4576.00
2018-06-02T10:06:39.071Z,4764.00
2018-06-02T10:07:39.002Z,5440.00
2018-06-02T10:08:38.933Z,6224.00
2018-06-02T10:09:38.863Z,6448.00
2018-06-02T10:10:38.819Z,5900.00
2018-06-02T10:11:38.726Z,5084.00
2018-06-02T10:12:38.657Z,4412.00
2018-06-02T10:13:38.589Z,4720.00
2018-06-02T10:14:38.522Z,4916.00
2018-06-02T10:15:38.453Z,4960.00
2018-06-02T10:16:38.383Z,4592.00
2018-06-02T10:17:38.316Z,4028.00
2018-06-02T10:18:38.248Z,2912.00
2018-06-02T10:19:38.178Z,2148.00
2018-06-02T10:20:38.110Z,2108.00
2018-06-02T10:21:38.092Z,2384.00
2018-06-02T10:22:37.972Z,3092.00
2018-06-02T10:23:37.918Z,3620.00
2018-06-02T10:24:37.835Z,3676.00
2018-06-02T10:25:37.767Z,3976.00
2018-06-02T10:26:37.699Z,3840.00
2018-06-02T10:27:37.630Z,3920.00
2018-06-02T10:28:37.561Z,4660.00
2018-06-02T10:29:37.503Z,5660.00
2018-06-02T10:30:37.424Z,6696.00
2018-06-02T10:31:37.355Z,7736.00
2018-06-02T10:32:37.287Z,8348.00
2018-06-02T10:33:37.218Z,6660.00
2018-06-02T10:34:37.152Z,4216.00
2018-06-02T10:35:37.161Z,4048.00
2018-06-02T10:36:37.012Z,5048.00
2018-06-02T10:37:36.944Z,6172.00
2018-06-02T10:38:36.877Z,6624.00
2018-06-02T10:39:36.807Z,5744.00
2018-06-02T10:40:36.739Z,5600.00
2018-06-02T10:41:36.671Z,6068.00
2018-06-02T10:42:36.602Z,6656.00
2018-06-02T10:43:36.532Z,6280.00
2018-06-02T10:44:36.511Z,6068.00
2018-06-02T10:45:36.397Z,6808.00
2018-06-02T10:46:36.329Z,7648.00
2018-06-02T10:47:36.259Z,10352.00
2018-06-02T10:48:36.191Z,11408.00
2018-06-02T10:49:36.122Z,10172.00
2018-06-02T10:50:36.055Z,7472.00
2018-06-02T10:51:35.986Z,5984.00
2018-06-02T10:52:35.915Z,6300.00
2018-06-02T10:53:35.848Z,6168.00
2018-06-02T10:54:35.780Z,6064.00
2018-06-02T10:55:35.711Z,6004.00
2018-06-02T10:56:35.643Z,5972.00
2018-06-02T10:57:35.575Z,6272.00
2018-06-02T10:58:35.506Z,6496.00
2018-06-02T10:59:35.436Z,6904.00
2018-06-02T11:00:35.370Z,7380.00
2018-06-02T11:01:35.342Z,6400.00
2018-06-02T11:02:35.233Z,5468.00
2018-06-02T11:03:35.165Z,5220.00
2018-06-02T11:04:35.097Z,5680.00
2018-06-02T11:05:35.031Z,7028.00
2018-06-02T11:06:34.964Z,6660.00
2018-06-02T11:07:34.893Z,6004.00
2018-06-02T11:08:34.825Z,4660.00
2018-06-02T11:09:34.757Z,3720.00
2018-06-02T11:10:34.688Z,2916.00
2018-06-02T11:11:34.620Z,2848.00
2018-06-02T11:12:34.560Z,3252.00
2018-06-02T11:13:34.487Z,3580.00
2018-06-02T11:14:34.415Z,3776.00
2018-06-02T11:15:34.349Z,3840.00
2018-06-02T11:16:34.279Z,3656.00
2018-06-02T11:17:34.211Z,3296.00
2018-06-02T11:18:34.148Z,3164.00
2018-06-02T11:19:34.083Z,3664.00
2018-06-02T11:20:34.006Z,4080.00
2018-06-02T11:21:33.937Z,4352.00
2018-06-02T11:22:33.870Z,4376.00
2018-06-02T11:23:33.801Z,4632.00
2018-06-02T11:24:33.732Z,4884.00
2018-06-02T11:25:33.667Z,5940.00
2018-06-02T11:26:33.596Z,7864.00
2018-06-02T11:27:33.526Z,7704.00
2018-06-02T11:28:33.459Z,7780.00
2018-06-02T11:29:33.390Z,9000.00
2018-06-02T11:30:33.321Z,25024.00
2018-06-02T11:31:33.253Z,30240.00
2018-06-02T11:32:33.185Z,35264.00
2018-06-02T11:33:33.120Z,9284.00
2018-06-02T11:34:33.050Z,6028.00
2018-06-02T11:35:32.981Z,6452.00
2018-06-02T11:36:32.914Z,5880.00
2018-06-02T11:37:32.851Z,5512.00
2018-06-02T11:38:32.780Z,5352.00
2018-06-02T11:39:32.749Z,5772.00
2018-06-02T11:40:32.644Z,5856.00
2018-06-02T11:41:32.576Z,6360.00
2018-06-02T11:42:32.512Z,7492.00
2018-06-02T11:43:32.440Z,8524.00
2018-06-02T11:44:32.373Z,9472.00
2018-06-02T11:45:32.305Z,18016.00
2018-06-02T11:46:32.238Z,122912.00
2018-06-02T11:47:32.169Z,119808.00
2018-06-02T11:48:32.104Z,114784.00
2018-06-02T11:49:32.037Z,112000.00
2018-06-02T11:50:31.974Z,109824.00
2018-06-02T11:51:31.904Z,7248.00
2018-06-02T11:52:31.839Z,5416.00
2018-06-02T11:53:31.776Z,6216.00
2018-06-02T11:54:31.709Z,7172.00
2018-06-02T11:55:31.650Z,7804.00
2018-06-02T11:56:31.586Z,9800.00
2018-06-02T11:57:31.520Z,12224.00
2018-06-02T11:58:31.457Z,27360.00
2018-06-02T11:59:31.389Z,16196.00
2018-06-02T12:00:31.327Z,116096.00
2018-06-02T12:01:31.267Z,6444.00
2018-06-02T12:02:31.197Z,5176.00
2018-06-02T12:03:31.132Z,7532.00
2018-06-02T12:04:31.071Z,8460.00
2018-06-02T12:05:31.007Z,12796.00
2018-06-02T12:06:30.942Z,53184.00
2018-06-02T12:07:30.878Z,5560.00
2018-06-02T12:08:30.812Z,4460.00
2018-06-02T12:09:30.751Z,5316.00
2018-06-02T12:10:30.685Z,7684.00
2018-06-02T12:11:30.620Z,9368.00
2018-06-02T12:12:30.556Z,12288.00
2018-06-02T12:13:30.498Z,9272.00
2018-06-02T12:14:30.425Z,5348.00
2018-06-02T12:15:30.359Z,4456.00
2018-06-02T12:16:30.299Z,4232.00
2018-06-02T12:17:30.229Z,4112.00
2018-06-02T12:18:30.164Z,3988.00
2018-06-02T12:19:30.096Z,3928.00
2018-06-02T12:20:30.033Z,4100.00
2018-06-02T12:21:29.965Z,4260.00
2018-06-02T12:22:29.902Z,4372.00
2018-06-02T12:23:29.837Z,4252.00
2018-06-02T12:24:29.769Z,4456.00